Whitten, Iowa
Current Conditions -  °F | °C
As of 7:05 PM on Friday 19 Dec 2014 (Local Time) from KMIW Reporting Station
Overcast Overcast  
Wind Chill: 20°   Ceiling: 3000
Heat Index: 29°   Visibility: 8mi
Dew Point: 25°   Wind: 9mph
Humidity: 85%   Direction: 140°SE
Pressure: 30.2"   Gusts: NA
Location:  42.26°N, 93.01°W
Report Text: KMIW 200105Z AUTO 14008KT 8SM OVC030 M02/M04 A3020 RMK AO2 T10171039
Loading
Personal Weather Stations






























Interactive Weather Map New forecast layout! Learn more

10-Day Weather Forecast

Advertisements
Track Severe Weather on mobile